sensor_id;sensor_type;location;lat;lon;timestamp;temperature;humidity
20384;DHT22;46458;50.966;7.002;2023-04-30T00:00:08;10.50;99.90
20384;DHT22;46458;50.966;7.002;2023-04-30T00:02:38;10.50;99.90
20384;DHT22;46458;50.966;7.002;2023-04-30T00:05:09;10.50;99.90
20384;DHT22;46458;50.966;7.002;2023-04-30T00:07:43;10.50;99.90
20384;DHT22;46458;50.966;7.002;2023-04-30T00:10:12;10.40;99.90
20384;DHT22;46458;50.966;7.002;2023-04-30T00:12:41;10.40;99.90
20384;DHT22;46458;50.966;7.002;2023-04-30T00:15:10;10.40;99.90
20384;DHT22;46458;50.966;7.002;2023-04-30T00:17:39;10.30;99.90
20384;DHT22;46458;50.966;7.002;2023-04-30T00:20:09;10.30;99.90
20384;DHT22;46458;50.966;7.002;2023-04-30T00:22:43;10.30;99.90
20384;DHT22;46458;50.966;7.002;2023-04-30T00:25:12;10.20;99.90
20384;DHT22;46458;50.966;7.002;2023-04-30T00:27:41;10.20;99.90
20384;DHT22;46458;50.966;7.002;2023-04-30T00:30:11;10.10;99.90
20384;DHT22;46458;50.966;7.002;2023-04-30T00:32:40;10.10;99.90
20384;DHT22;46458;50.966;7.002;2023-04-30T00:35:10;10.10;99.90
20384;DHT22;46458;50.966;7.002;2023-04-30T00:37:39;10.10;99.90
20384;DHT22;46458;50.966;7.002;2023-04-30T00:40:11;10.10;99.90
20384;DHT22;46458;50.966;7.002;2023-04-30T00:42:41;10.00;99.90
20384;DHT22;46458;50.966;7.002;2023-04-30T00:45:10;10.00;99.90
20384;DHT22;46458;50.966;7.002;2023-04-30T00:47:41;10.00;99.90
20384;DHT22;46458;50.966;7.002;2023-04-30T00:50:13;10.00;99.90
20384;DHT22;46458;50.966;7.002;2023-04-30T00:52:43;10.00;99.90
20384;DHT22;46458;50.966;7.002;2023-04-30T00:55:15;10.00;99.90
20384;DHT22;46458;50.966;7.002;2023-04-30T00:57:45;9.90;99.90
20384;DHT22;46458;50.966;7.002;2023-04-30T01:00:14;9.90;99.90
20384;DHT22;46458;50.966;7.002;2023-04-30T01:02:45;9.90;99.90
20384;DHT22;46458;50.966;7.002;2023-04-30T01:05:13;9.90;99.90
20384;DHT22;46458;50.966;7.002;2023-04-30T01:07:42;9.90;99.90
20384;DHT22;46458;50.966;7.002;2023-04-30T01:10:15;9.80;99.90
20384;DHT22;46458;50.966;7.002;2023-04-30T01:12:49;9.80;99.90
20384;DHT22;46458;50.966;7.002;2023-04-30T01:15:25;9.80;99.90
20384;DHT22;46458;50.966;7.002;2023-04-30T01:17:58;9.70;99.90
20384;DHT22;46458;50.966;7.002;2023-04-30T01:20:36;9.90;99.90
20384;DHT22;46458;50.966;7.002;2023-04-30T01:23:13;9.90;99.90
20384;DHT22;46458;50.966;7.002;2023-04-30T01:26:08;9.90;99.90
20384;DHT22;46458;50.966;7.002;2023-04-30T01:28:42;9.80;99.90
20384;DHT22;46458;50.966;7.002;2023-04-30T01:31:12;9.70;99.90
20384;DHT22;46458;50.966;7.002;2023-04-30T01:33:43;9.80;99.90
20384;DHT22;46458;50.966;7.002;2023-04-30T01:36:28;9.70;99.90
20384;DHT22;46458;50.966;7.002;2023-04-30T01:39:27;9.70;99.90
20384;DHT22;46458;50.966;7.002;2023-04-30T01:42:06;9.60;99.90
20384;DHT22;46458;50.966;7.002;2023-04-30T01:44:57;9.60;99.90
20384;DHT22;46458;50.966;7.002;2023-04-30T01:47:36;9.60;99.90
20384;DHT22;46458;50.966;7.002;2023-04-30T01:50:20;9.60;99.90
20384;DHT22;46458;50.966;7.002;2023-04-30T01:52:53;9.50;99.90
20384;DHT22;46458;50.966;7.002;2023-04-30T01:55:33;9.40;99.90
20384;DHT22;46458;50.966;7.002;2023-04-30T01:58:09;9.30;99.90
20384;DHT22;46458;50.966;7.002;2023-04-30T02:00:41;9.40;99.90
20384;DHT22;46458;50.966;7.002;2023-04-30T02:03:13;9.30;99.90
20384;DHT22;46458;50.966;7.002;2023-04-30T02:05:42;9.20;99.90
20384;DHT22;46458;50.966;7.002;2023-04-30T02:08:12;9.20;99.90
20384;DHT22;46458;50.966;7.002;2023-04-30T02:10:41;9.20;99.90
20384;DHT22;46458;50.966;7.002;2023-04-30T02:13:09;9.20;99.90
20384;DHT22;46458;50.966;7.002;2023-04-30T02:15:41;9.20;99.90
20384;DHT22;46458;50.966;7.002;2023-04-30T02:18:13;9.10;99.90
20384;DHT22;46458;50.966;7.002;2023-04-30T02:20:42;9.20;99.90
20384;DHT22;46458;50.966;7.002;2023-04-30T02:23:11;9.20;99.90
20384;DHT22;46458;50.966;7.002;2023-04-30T02:25:41;9.20;99.90
20384;DHT22;46458;50.966;7.002;2023-04-30T02:28:09;9.20;99.90
20384;DHT22;46458;50.966;7.002;2023-04-30T02:30:41;9.00;99.90
20384;DHT22;46458;50.966;7.002;2023-04-30T02:33:09;9.00;99.90
20384;DHT22;46458;50.966;7.002;2023-04-30T02:35:39;9.10;99.90
20384;DHT22;46458;50.966;7.002;2023-04-30T02:38:08;9.10;99.90
20384;DHT22;46458;50.966;7.002;2023-04-30T02:40:37;9.10;99.90
20384;DHT22;46458;50.966;7.002;2023-04-30T02:43:09;9.20;99.90
20384;DHT22;46458;50.966;7.002;2023-04-30T02:45:40;9.20;99.90
20384;DHT22;46458;50.966;7.002;2023-04-30T02:48:09;9.00;99.90
20384;DHT22;46458;50.966;7.002;2023-04-30T02:50:42;9.10;99.90
20384;DHT22;46458;50.966;7.002;2023-04-30T02:53:11;9.00;99.90
20384;DHT22;46458;50.966;7.002;2023-04-30T02:55:39;9.00;99.90
20384;DHT22;46458;50.966;7.002;2023-04-30T02:58:08;9.00;99.90
20384;DHT22;46458;50.966;7.002;2023-04-30T03:00:41;8.90;99.90
20384;DHT22;46458;50.966;7.002;2023-04-30T03:03:12;9.00;99.90
20384;DHT22;46458;50.966;7.002;2023-04-30T03:05:41;9.00;99.90
20384;DHT22;46458;50.966;7.002;2023-04-30T03:08:13;9.10;99.90
20384;DHT22;46458;50.966;7.002;2023-04-30T03:10:43;9.10;99.90
20384;DHT22;46458;50.966;7.002;2023-04-30T03:13:16;9.20;99.90
20384;DHT22;46458;50.966;7.002;2023-04-30T03:15:48;9.10;99.90
20384;DHT22;46458;50.966;7.002;2023-04-30T03:18:16;9.10;99.90
20384;DHT22;46458;50.966;7.002;2023-04-30T03:20:45;9.10;99.90
20384;DHT22;46458;50.966;7.002;2023-04-30T03:23:14;9.10;99.90
20384;DHT22;46458;50.966;7.002;2023-04-30T03:25:46;9.10;99.90
20384;DHT22;46458;50.966;7.002;2023-04-30T03:28:15;9.00;99.90
20384;DHT22;46458;50.966;7.002;2023-04-30T03:30:44;9.00;99.90
20384;DHT22;46458;50.966;7.002;2023-04-30T03:33:15;9.00;99.90
20384;DHT22;46458;50.966;7.002;2023-04-30T03:35:44;8.90;99.90
20384;DHT22;46458;50.966;7.002;2023-04-30T03:38:22;8.90;99.90
20384;DHT22;46458;50.966;7.002;2023-04-30T03:40:51;8.80;99.90
20384;DHT22;46458;50.966;7.002;2023-04-30T03:43:21;8.80;99.90
20384;DHT22;46458;50.966;7.002;2023-04-30T03:45:49;8.80;99.90
20384;DHT22;46458;50.966;7.002;2023-04-30T03:48:21;8.80;99.90
20384;DHT22;46458;50.966;7.002;2023-04-30T03:50:50;8.70;99.90
20384;DHT22;46458;50.966;7.002;2023-04-30T03:53:18;8.70;99.90
20384;DHT22;46458;50.966;7.002;2023-04-30T03:55:48;8.60;99.90
20384;DHT22;46458;50.966;7.002;2023-04-30T03:58:17;8.60;99.90
20384;DHT22;46458;50.966;7.002;2023-04-30T04:00:46;8.60;99.90
20384;DHT22;46458;50.966;7.002;2023-04-30T04:03:15;8.60;99.90
20384;DHT22;46458;50.966;7.002;2023-04-30T04:05:50;8.70;99.90
20384;DHT22;46458;50.966;7.002;2023-04-30T04:08:19;8.80;99.90
20384;DHT22;46458;50.966;7.002;2023-04-30T04:10:48;8.70;99.90
20384;DHT22;46458;50.966;7.002;2023-04-30T04:13:17;8.60;99.90
20384;DHT22;46458;50.966;7.002;2023-04-30T04:15:46;8.50;99.90
20384;DHT22;46458;50.966;7.002;2023-04-30T04:18:15;8.50;99.90
20384;DHT22;46458;50.966;7.002;2023-04-30T04:20:44;8.60;99.90
20384;DHT22;46458;50.966;7.002;2023-04-30T04:23:15;8.50;99.90
20384;DHT22;46458;50.966;7.002;2023-04-30T04:25:44;8.50;99.90
20384;DHT22;46458;50.966;7.002;2023-04-30T04:28:17;8.50;99.90
20384;DHT22;46458;50.966;7.002;2023-04-30T04:30:46;8.40;99.90
20384;DHT22;46458;50.966;7.002;2023-04-30T04:33:21;8.40;99.90
20384;DHT22;46458;50.966;7.002;2023-04-30T04:35:50;8.30;99.90
20384;DHT22;46458;50.966;7.002;2023-04-30T04:38:21;8.30;99.90
20384;DHT22;46458;50.966;7.002;2023-04-30T04:40:51;8.40;99.90
20384;DHT22;46458;50.966;7.002;2023-04-30T04:43:21;8.40;99.90
20384;DHT22;46458;50.966;7.002;2023-04-30T04:45:50;8.40;99.90
20384;DHT22;46458;50.966;7.002;2023-04-30T04:48:19;8.40;99.90
20384;DHT22;46458;50.966;7.002;2023-04-30T04:50:48;8.40;99.90
20384;DHT22;46458;50.966;7.002;2023-04-30T04:53:21;8.50;99.90
20384;DHT22;46458;50.966;7.002;2023-04-30T04:55:52;8.60;99.90
20384;DHT22;46458;50.966;7.002;2023-04-30T04:58:21;8.50;99.90
20384;DHT22;46458;50.966;7.002;2023-04-30T05:00:50;8.40;99.90
20384;DHT22;46458;50.966;7.002;2023-04-30T05:03:19;8.40;99.90
20384;DHT22;46458;50.966;7.002;2023-04-30T05:05:49;8.40;99.90
20384;DHT22;46458;50.966;7.002;2023-04-30T05:08:18;8.40;99.90
20384;DHT22;46458;50.966;7.002;2023-04-30T05:10:49;8.40;99.90
20384;DHT22;46458;50.966;7.002;2023-04-30T05:13:18;8.40;99.90
20384;DHT22;46458;50.966;7.002;2023-04-30T05:15:50;9.20;99.90
20384;DHT22;46458;50.966;7.002;2023-04-30T05:18:20;8.40;99.90
20384;DHT22;46458;50.966;7.002;2023-04-30T05:20:49;8.40;99.90
20384;DHT22;46458;50.966;7.002;2023-04-30T05:23:17;8.40;99.90
20384;DHT22;46458;50.966;7.002;2023-04-30T05:25:53;8.40;99.90
20384;DHT22;46458;50.966;7.002;2023-04-30T05:28:22;8.50;99.90
20384;DHT22;46458;50.966;7.002;2023-04-30T05:30:51;8.50;99.90
20384;DHT22;46458;50.966;7.002;2023-04-30T05:33:20;8.60;99.90
20384;DHT22;46458;50.966;7.002;2023-04-30T05:35:48;8.60;99.90
20384;DHT22;46458;50.966;7.002;2023-04-30T05:38:17;8.70;99.90
20384;DHT22;46458;50.966;7.002;2023-04-30T05:40:46;8.70;99.90
20384;DHT22;46458;50.966;7.002;2023-04-30T05:43:17;8.80;99.90
20384;DHT22;46458;50.966;7.002;2023-04-30T05:45:46;8.80;99.90
20384;DHT22;46458;50.966;7.002;2023-04-30T05:48:15;8.90;99.90
20384;DHT22;46458;50.966;7.002;2023-04-30T05:50:44;9.00;99.90
20384;DHT22;46458;50.966;7.002;2023-04-30T05:53:13;9.00;99.90
20384;DHT22;46458;50.966;7.002;2023-04-30T05:55:42;9.10;99.90
20384;DHT22;46458;50.966;7.002;2023-04-30T05:58:16;9.10;99.90
20384;DHT22;46458;50.966;7.002;2023-04-30T06:00:48;9.20;99.90
20384;DHT22;46458;50.966;7.002;2023-04-30T06:03:26;9.30;99.90
20384;DHT22;46458;50.966;7.002;2023-04-30T06:05:57;9.40;99.90
20384;DHT22;46458;50.966;7.002;2023-04-30T06:08:26;9.50;99.90
20384;DHT22;46458;50.966;7.002;2023-04-30T06:10:55;9.60;99.90
20384;DHT22;46458;50.966;7.002;2023-04-30T06:13:28;9.70;99.90
20384;DHT22;46458;50.966;7.002;2023-04-30T06:15:56;9.70;99.90
20384;DHT22;46458;50.966;7.002;2023-04-30T06:18:25;9.80;99.90
20384;DHT22;46458;50.966;7.002;2023-04-30T06:20:54;9.90;99.90
20384;DHT22;46458;50.966;7.002;2023-04-30T06:23:25;9.90;99.90
20384;DHT22;46458;50.966;7.002;2023-04-30T06:25:54;10.10;99.90
20384;DHT22;46458;50.966;7.002;2023-04-30T06:28:23;10.10;99.90
20384;DHT22;46458;50.966;7.002;2023-04-30T06:30:55;10.20;99.90
20384;DHT22;46458;50.966;7.002;2023-04-30T06:33:24;10.30;99.90
20384;DHT22;46458;50.966;7.002;2023-04-30T06:35:52;10.40;99.90
20384;DHT22;46458;50.966;7.002;2023-04-30T06:38:21;10.50;99.90
20384;DHT22;46458;50.966;7.002;2023-04-30T06:40:51;10.60;99.90
20384;DHT22;46458;50.966;7.002;2023-04-30T06:43:20;10.70;99.90
20384;DHT22;46458;50.966;7.002;2023-04-30T06:45:49;10.80;99.90
20384;DHT22;46458;50.966;7.002;2023-04-30T06:48:23;10.90;99.90
20384;DHT22;46458;50.966;7.002;2023-04-30T06:50:52;11.00;99.90
20384;DHT22;46458;50.966;7.002;2023-04-30T06:53:23;11.00;99.90
20384;DHT22;46458;50.966;7.002;2023-04-30T06:55:52;11.20;99.90
20384;DHT22;46458;50.966;7.002;2023-04-30T06:58:21;11.30;99.90
20384;DHT22;46458;50.966;7.002;2023-04-30T07:00:50;11.40;99.90
20384;DHT22;46458;50.966;7.002;2023-04-30T07:03:22;11.50;99.90
20384;DHT22;46458;50.966;7.002;2023-04-30T07:05:51;11.60;99.90
20384;DHT22;46458;50.966;7.002;2023-04-30T07:08:20;11.70;99.90
20384;DHT22;46458;50.966;7.002;2023-04-30T07:10:52;11.90;99.90
20384;DHT22;46458;50.966;7.002;2023-04-30T07:13:21;11.90;99.90
20384;DHT22;46458;50.966;7.002;2023-04-30T07:15:51;12.00;99.90
20384;DHT22;46458;50.966;7.002;2023-04-30T07:18:22;12.20;99.90
20384;DHT22;46458;50.966;7.002;2023-04-30T07:20:52;12.30;99.90
20384;DHT22;46458;50.966;7.002;2023-04-30T07:23:23;12.40;99.90
20384;DHT22;46458;50.966;7.002;2023-04-30T07:25:52;12.60;99.90
20384;DHT22;46458;50.966;7.002;2023-04-30T07:28:21;12.70;99.90
20384;DHT22;46458;50.966;7.002;2023-04-30T07:30:50;12.90;99.90
20384;DHT22;46458;50.966;7.002;2023-04-30T07:33:21;13.10;99.90
20384;DHT22;46458;50.966;7.002;2023-04-30T07:35:50;13.20;99.90
20384;DHT22;46458;50.966;7.002;2023-04-30T07:38:20;13.30;99.90
20384;DHT22;46458;50.966;7.002;2023-04-30T07:40:50;13.50;99.90
20384;DHT22;46458;50.966;7.002;2023-04-30T07:43:21;13.70;99.90
20384;DHT22;46458;50.966;7.002;2023-04-30T07:45:50;13.90;99.90
20384;DHT22;46458;50.966;7.002;2023-04-30T07:48:25;14.00;99.90
20384;DHT22;46458;50.966;7.002;2023-04-30T07:50:55;14.10;99.90
20384;DHT22;46458;50.966;7.002;2023-04-30T07:53:30;14.20;99.90
20384;DHT22;46458;50.966;7.002;2023-04-30T07:56:06;14.40;99.90
20384;DHT22;46458;50.966;7.002;2023-04-30T07:58:41;14.50;99.90
20384;DHT22;46458;50.966;7.002;2023-04-30T08:01:11;14.70;99.90
20384;DHT22;46458;50.966;7.002;2023-04-30T08:03:45;14.80;99.90
20384;DHT22;46458;50.966;7.002;2023-04-30T08:06:14;14.90;99.90
20384;DHT22;46458;50.966;7.002;2023-04-30T08:08:43;14.90;99.90
20384;DHT22;46458;50.966;7.002;2023-04-30T08:11:15;15.10;99.90
20384;DHT22;46458;50.966;7.002;2023-04-30T08:13:44;15.10;99.90
20384;DHT22;46458;50.966;7.002;2023-04-30T08:16:16;15.20;99.90
20384;DHT22;46458;50.966;7.002;2023-04-30T08:18:48;15.20;99.90
20384;DHT22;46458;50.966;7.002;2023-04-30T08:21:17;15.30;99.90
20384;DHT22;46458;50.966;7.002;2023-04-30T08:23:46;14.80;99.90
20384;DHT22;46458;50.966;7.002;2023-04-30T08:26:15;15.60;99.90
20384;DHT22;46458;50.966;7.002;2023-04-30T08:28:47;15.80;99.90
20384;DHT22;46458;50.966;7.002;2023-04-30T08:31:16;15.80;99.90
20384;DHT22;46458;50.966;7.002;2023-04-30T08:33:48;16.00;99.90
20384;DHT22;46458;50.966;7.002;2023-04-30T08:36:16;16.20;99.90
20384;DHT22;46458;50.966;7.002;2023-04-30T08:38:45;16.20;99.90
20384;DHT22;46458;50.966;7.002;2023-04-30T08:41:14;16.40;99.90
20384;DHT22;46458;50.966;7.002;2023-04-30T08:43:47;16.60;99.90
20384;DHT22;46458;50.966;7.002;2023-04-30T08:46:16;16.80;99.90
20384;DHT22;46458;50.966;7.002;2023-04-30T08:48:48;16.90;99.90
20384;DHT22;46458;50.966;7.002;2023-04-30T08:51:17;16.90;99.90
20384;DHT22;46458;50.966;7.002;2023-04-30T08:53:46;17.10;99.90
20384;DHT22;46458;50.966;7.002;2023-04-30T08:56:16;17.20;99.90
20384;DHT22;46458;50.966;7.002;2023-04-30T08:58:44;17.40;99.90
20384;DHT22;46458;50.966;7.002;2023-04-30T09:01:13;17.50;99.90
20384;DHT22;46458;50.966;7.002;2023-04-30T09:03:43;17.70;99.90
20384;DHT22;46458;50.966;7.002;2023-04-30T09:06:17;18.10;99.90
20384;DHT22;46458;50.966;7.002;2023-04-30T09:08:49;18.40;99.90
20384;DHT22;46458;50.966;7.002;2023-04-30T09:11:21;18.60;99.90
20384;DHT22;46458;50.966;7.002;2023-04-30T09:13:50;18.80;99.90
20384;DHT22;46458;50.966;7.002;2023-04-30T09:16:20;18.90;99.90
20384;DHT22;46458;50.966;7.002;2023-04-30T09:18:49;19.10;99.90
20384;DHT22;46458;50.966;7.002;2023-04-30T09:21:33;19.30;99.90
20384;DHT22;46458;50.966;7.002;2023-04-30T09:24:03;19.30;99.90
20384;DHT22;46458;50.966;7.002;2023-04-30T09:26:34;19.60;99.90
20384;DHT22;46458;50.966;7.002;2023-04-30T09:29:04;19.80;99.90
20384;DHT22;46458;50.966;7.002;2023-04-30T09:31:35;20.00;99.90
20384;DHT22;46458;50.966;7.002;2023-04-30T09:34:05;20.20;99.90
20384;DHT22;46458;50.966;7.002;2023-04-30T09:36:36;20.60;99.90
20384;DHT22;46458;50.966;7.002;2023-04-30T09:39:06;21.10;99.90
20384;DHT22;46458;50.966;7.002;2023-04-30T09:41:36;21.30;99.90
20384;DHT22;46458;50.966;7.002;2023-04-30T09:44:05;21.60;99.90
20384;DHT22;46458;50.966;7.002;2023-04-30T09:46:34;21.60;99.90
20384;DHT22;46458;50.966;7.002;2023-04-30T09:49:05;21.70;99.90
20384;DHT22;46458;50.966;7.002;2023-04-30T09:51:52;22.00;99.90
20384;DHT22;46458;50.966;7.002;2023-04-30T09:54:23;22.30;99.90
20384;DHT22;46458;50.966;7.002;2023-04-30T09:56:54;22.30;99.90
20384;DHT22;46458;50.966;7.002;2023-04-30T09:59:27;22.10;99.90
20384;DHT22;46458;50.966;7.002;2023-04-30T10:01:58;22.10;99.90
20384;DHT22;46458;50.966;7.002;2023-04-30T10:04:29;21.80;99.90
20384;DHT22;46458;50.966;7.002;2023-04-30T10:07:05;21.20;99.90
20384;DHT22;46458;50.966;7.002;2023-04-30T10:09:40;21.20;99.90
20384;DHT22;46458;50.966;7.002;2023-04-30T10:12:13;21.40;99.90
20384;DHT22;46458;50.966;7.002;2023-04-30T10:14:47;21.60;99.90
20384;DHT22;46458;50.966;7.002;2023-04-30T10:17:16;21.80;99.90
20384;DHT22;46458;50.966;7.002;2023-04-30T10:19:47;21.90;99.90
20384;DHT22;46458;50.966;7.002;2023-04-30T10:22:20;21.70;99.90
20384;DHT22;46458;50.966;7.002;2023-04-30T10:24:49;21.30;99.90
20384;DHT22;46458;50.966;7.002;2023-04-30T10:27:18;20.90;99.90
20384;DHT22;46458;50.966;7.002;2023-04-30T10:29:48;20.50;99.90
20384;DHT22;46458;50.966;7.002;2023-04-30T10:32:19;20.20;99.90
20384;DHT22;46458;50.966;7.002;2023-04-30T10:34:54;19.90;99.90
20384;DHT22;46458;50.966;7.002;2023-04-30T10:37:33;19.70;99.90
20384;DHT22;46458;50.966;7.002;2023-04-30T10:40:05;19.90;99.90
20384;DHT22;46458;50.966;7.002;2023-04-30T10:42:35;20.10;99.90
20384;DHT22;46458;50.966;7.002;2023-04-30T10:45:09;20.30;99.90
20384;DHT22;46458;50.966;7.002;2023-04-30T10:47:41;20.60;99.90
20384;DHT22;46458;50.966;7.002;2023-04-30T10:50:10;20.90;99.90
20384;DHT22;46458;50.966;7.002;2023-04-30T10:52:43;21.10;99.90
20384;DHT22;46458;50.966;7.002;2023-04-30T10:55:16;21.00;99.90
20384;DHT22;46458;50.966;7.002;2023-04-30T10:57:45;20.50;99.90
20384;DHT22;46458;50.966;7.002;2023-04-30T11:00:18;20.30;99.90
20384;DHT22;46458;50.966;7.002;2023-04-30T11:02:47;20.10;99.90
20384;DHT22;46458;50.966;7.002;2023-04-30T11:05:19;19.80;99.90
20384;DHT22;46458;50.966;7.002;2023-04-30T11:07:55;20.10;99.90
20384;DHT22;46458;50.966;7.002;2023-04-30T11:10:31;20.40;99.90
20384;DHT22;46458;50.966;7.002;2023-04-30T11:13:04;20.70;99.90
20384;DHT22;46458;50.966;7.002;2023-04-30T11:15:40;20.80;99.90
20384;DHT22;46458;50.966;7.002;2023-04-30T11:18:09;21.00;99.90
20384;DHT22;46458;50.966;7.002;2023-04-30T11:20:39;21.20;99.90
20384;DHT22;46458;50.966;7.002;2023-04-30T11:23:15;21.20;99.90
20384;DHT22;46458;50.966;7.002;2023-04-30T11:25:46;21.20;99.90
20384;DHT22;46458;50.966;7.002;2023-04-30T11:28:19;21.20;99.90
20384;DHT22;46458;50.966;7.002;2023-04-30T11:30:50;21.50;99.90
20384;DHT22;46458;50.966;7.002;2023-04-30T11:33:20;21.60;99.90
20384;DHT22;46458;50.966;7.002;2023-04-30T11:35:49;21.90;99.90
20384;DHT22;46458;50.966;7.002;2023-04-30T11:38:26;21.60;99.90
20384;DHT22;46458;50.966;7.002;2023-04-30T11:40:58;21.30;99.90
20384;DHT22;46458;50.966;7.002;2023-04-30T11:43:30;21.00;99.90
20384;DHT22;46458;50.966;7.002;2023-04-30T11:46:05;20.90;99.90
20384;DHT22;46458;50.966;7.002;2023-04-30T11:48:35;20.90;99.90
20384;DHT22;46458;50.966;7.002;2023-04-30T11:51:13;20.90;99.90
20384;DHT22;46458;50.966;7.002;2023-04-30T11:53:45;20.80;99.90
20384;DHT22;46458;50.966;7.002;2023-04-30T11:56:17;20.90;99.90
20384;DHT22;46458;50.966;7.002;2023-04-30T11:58:48;21.10;99.90
20384;DHT22;46458;50.966;7.002;2023-04-30T12:01:17;21.30;99.90
20384;DHT22;46458;50.966;7.002;2023-04-30T12:03:48;21.50;99.90
20384;DHT22;46458;50.966;7.002;2023-04-30T12:06:21;21.50;99.90
20384;DHT22;46458;50.966;7.002;2023-04-30T12:08:57;21.10;99.90
20384;DHT22;46458;50.966;7.002;2023-04-30T12:11:27;20.80;99.90
20384;DHT22;46458;50.966;7.002;2023-04-30T12:13:59;20.50;99.90
20384;DHT22;46458;50.966;7.002;2023-04-30T12:16:39;20.40;99.90
20384;DHT22;46458;50.966;7.002;2023-04-30T12:19:09;20.30;99.90
20384;DHT22;46458;50.966;7.002;2023-04-30T12:21:38;20.10;99.90
20384;DHT22;46458;50.966;7.002;2023-04-30T12:24:13;19.90;99.90
20384;DHT22;46458;50.966;7.002;2023-04-30T12:26:42;19.70;99.90
20384;DHT22;46458;50.966;7.002;2023-04-30T12:29:14;20.00;99.90
20384;DHT22;46458;50.966;7.002;2023-04-30T12:31:44;20.20;99.90
20384;DHT22;46458;50.966;7.002;2023-04-30T12:34:13;20.30;99.90
20384;DHT22;46458;50.966;7.002;2023-04-30T12:36:43;20.10;99.90
20384;DHT22;46458;50.966;7.002;2023-04-30T12:39:15;19.90;99.90
20384;DHT22;46458;50.966;7.002;2023-04-30T12:41:48;19.70;99.90
20384;DHT22;46458;50.966;7.002;2023-04-30T12:44:21;19.60;99.90
20384;DHT22;46458;50.966;7.002;2023-04-30T12:46:54;19.90;99.90
20384;DHT22;46458;50.966;7.002;2023-04-30T12:49:26;20.40;99.90
20384;DHT22;46458;50.966;7.002;2023-04-30T12:51:59;20.90;99.90
20384;DHT22;46458;50.966;7.002;2023-04-30T12:54:34;21.40;99.90
20384;DHT22;46458;50.966;7.002;2023-04-30T12:57:12;21.80;99.90
20384;DHT22;46458;50.966;7.002;2023-04-30T12:59:56;22.00;99.90
20384;DHT22;46458;50.966;7.002;2023-04-30T13:02:27;22.20;99.90
20384;DHT22;46458;50.966;7.002;2023-04-30T13:04:56;22.30;99.90
20384;DHT22;46458;50.966;7.002;2023-04-30T13:07:25;22.20;99.80
20384;DHT22;46458;50.966;7.002;2023-04-30T13:09:58;21.90;99.90
20384;DHT22;46458;50.966;7.002;2023-04-30T13:12:27;22.00;99.90
20384;DHT22;46458;50.966;7.002;2023-04-30T13:14:57;21.70;99.90
20384;DHT22;46458;50.966;7.002;2023-04-30T13:17:28;21.50;99.90
20384;DHT22;46458;50.966;7.002;2023-04-30T13:19:57;21.20;99.90
20384;DHT22;46458;50.966;7.002;2023-04-30T13:22:25;20.80;99.90
20384;DHT22;46458;50.966;7.002;2023-04-30T13:24:57;20.90;99.90
20384;DHT22;46458;50.966;7.002;2023-04-30T13:27:26;20.90;99.90
20384;DHT22;46458;50.966;7.002;2023-04-30T13:29:55;20.80;99.90
20384;DHT22;46458;50.966;7.002;2023-04-30T13:32:27;20.90;99.90
20384;DHT22;46458;50.966;7.002;2023-04-30T13:34:56;20.90;99.90
20384;DHT22;46458;50.966;7.002;2023-04-30T13:37:26;20.80;99.90
20384;DHT22;46458;50.966;7.002;2023-04-30T13:40:01;20.60;99.90
20384;DHT22;46458;50.966;7.002;2023-04-30T13:42:31;20.80;99.90
20384;DHT22;46458;50.966;7.002;2023-04-30T13:45:01;20.50;99.90
20384;DHT22;46458;50.966;7.002;2023-04-30T13:47:30;20.50;99.90
20384;DHT22;46458;50.966;7.002;2023-04-30T13:49:59;20.60;99.90
20384;DHT22;46458;50.966;7.002;2023-04-30T13:52:28;20.70;99.90
20384;DHT22;46458;50.966;7.002;2023-04-30T13:55:02;20.70;99.90
20384;DHT22;46458;50.966;7.002;2023-04-30T13:57:32;20.70;99.90
20384;DHT22;46458;50.966;7.002;2023-04-30T14:00:01;20.80;99.90
20384;DHT22;46458;50.966;7.002;2023-04-30T14:02:33;21.10;99.90
20384;DHT22;46458;50.966;7.002;2023-04-30T14:05:06;21.20;99.90
20384;DHT22;46458;50.966;7.002;2023-04-30T14:07:35;21.10;99.90
20384;DHT22;46458;50.966;7.002;2023-04-30T14:10:09;21.00;99.90
20384;DHT22;46458;50.966;7.002;2023-04-30T14:12:38;20.80;99.90
20384;DHT22;46458;50.966;7.002;2023-04-30T14:15:07;20.80;99.90
20384;DHT22;46458;50.966;7.002;2023-04-30T14:17:36;20.90;99.90
20384;DHT22;46458;50.966;7.002;2023-04-30T14:20:07;21.20;99.90
20384;DHT22;46458;50.966;7.002;2023-04-30T14:22:38;21.80;99.90
20384;DHT22;46458;50.966;7.002;2023-04-30T14:25:10;22.30;99.90
20384;DHT22;46458;50.966;7.002;2023-04-30T14:27:39;22.40;99.90
20384;DHT22;46458;50.966;7.002;2023-04-30T14:30:11;22.30;99.90
20384;DHT22;46458;50.966;7.002;2023-04-30T14:32:40;22.20;99.90
20384;DHT22;46458;50.966;7.002;2023-04-30T14:35:10;21.90;99.90
20384;DHT22;46458;50.966;7.002;2023-04-30T14:37:39;21.60;99.90
20384;DHT22;46458;50.966;7.002;2023-04-30T14:40:13;21.20;99.90
20384;DHT22;46458;50.966;7.002;2023-04-30T14:42:42;20.90;99.90
20384;DHT22;46458;50.966;7.002;2023-04-30T14:45:11;20.60;99.90
20384;DHT22;46458;50.966;7.002;2023-04-30T14:47:43;20.50;99.90
20384;DHT22;46458;50.966;7.002;2023-04-30T14:50:15;20.30;99.90
20384;DHT22;46458;50.966;7.002;2023-04-30T14:52:46;20.30;99.90
20384;DHT22;46458;50.966;7.002;2023-04-30T14:55:18;20.20;99.90
20384;DHT22;46458;50.966;7.002;2023-04-30T14:57:47;20.20;99.90
20384;DHT22;46458;50.966;7.002;2023-04-30T15:00:16;20.20;99.90
20384;DHT22;46458;50.966;7.002;2023-04-30T15:02:45;20.10;99.90
20384;DHT22;46458;50.966;7.002;2023-04-30T15:05:14;20.20;99.90
20384;DHT22;46458;50.966;7.002;2023-04-30T15:07:45;20.10;99.90
20384;DHT22;46458;50.966;7.002;2023-04-30T15:10:17;20.20;99.90
20384;DHT22;46458;50.966;7.002;2023-04-30T15:12:46;20.20;99.90
20384;DHT22;46458;50.966;7.002;2023-04-30T15:15:15;20.20;99.90
20384;DHT22;46458;50.966;7.002;2023-04-30T15:17:46;20.00;99.90
20384;DHT22;46458;50.966;7.002;2023-04-30T15:20:25;20.10;99.90
20384;DHT22;46458;50.966;7.002;2023-04-30T15:22:57;20.00;99.90
20384;DHT22;46458;50.966;7.002;2023-04-30T15:25:28;19.90;99.90
20384;DHT22;46458;50.966;7.002;2023-04-30T15:27:57;19.80;99.90
20384;DHT22;46458;50.966;7.002;2023-04-30T15:30:26;19.70;99.90
20384;DHT22;46458;50.966;7.002;2023-04-30T15:32:55;19.70;99.90
20384;DHT22;46458;50.966;7.002;2023-04-30T15:35:25;19.70;99.90
20384;DHT22;46458;50.966;7.002;2023-04-30T15:37:54;20.00;99.90
20384;DHT22;46458;50.966;7.002;2023-04-30T15:40:23;20.00;99.90
20384;DHT22;46458;50.966;7.002;2023-04-30T15:42:57;20.10;99.90
20384;DHT22;46458;50.966;7.002;2023-04-30T15:45:26;20.70;99.90
20384;DHT22;46458;50.966;7.002;2023-04-30T15:47:55;21.40;99.90
20384;DHT22;46458;50.966;7.002;2023-04-30T15:50:25;21.50;99.90
20384;DHT22;46458;50.966;7.002;2023-04-30T15:52:54;21.30;99.90
20384;DHT22;46458;50.966;7.002;2023-04-30T15:55:23;21.10;99.90
20384;DHT22;46458;50.966;7.002;2023-04-30T15:57:57;20.90;99.90